Time;durP1;ratioP1;P1;durP2;ratioP2;P2;SDS_P1;SDS_P2;PMS_P1;PMS_P2;Temp;Humidity;BMP_temperature;BMP_pressure;BME280_temperature;BME280_humidity;BME280_pressure;Samples;Min_cycle;Max_cycle;Signal;HPM_P1;HPM_P2
2021/04/16 00:02:16;;;;;;;2.20;0.80;;;19.50;29.00;;;;;;5093773;28;20020;-67
2021/04/16 00:04:41;;;;;;;1.02;0.50;;;19.50;29.00;;;;;;5093843;28;20039;-67
2021/04/16 00:07:07;;;;;;;3.50;0.93;;;19.50;29.00;;;;;;5092888;28;20055;-67
2021/04/16 00:09:33;;;;;;;1.48;0.80;;;19.40;29.00;;;;;;5093764;28;20387;-67
2021/04/16 00:11:58;;;;;;;1.00;0.63;;;19.40;29.00;;;;;;5093397;28;20491;-67
2021/04/16 00:14:24;;;;;;;1.88;0.70;;;19.40;29.00;;;;;;5093191;28;20040;-67
2021/04/16 00:16:50;;;;;;;1.55;0.70;;;19.40;29.00;;;;;;5093882;28;20028;-67
2021/04/16 00:19:16;;;;;;;1.48;0.63;;;19.40;29.00;;;;;;5093622;28;20036;-67
2021/04/16 00:21:42;;;;;;;2.20;1.00;;;19.40;29.00;;;;;;5093293;28;20059;-67
2021/04/16 00:24:12;;;;;;;2.00;1.02;;;19.40;29.00;;;;;;5093460;28;20017;-67
2021/04/16 00:26:42;;;;;;;1.65;0.80;;;19.50;29.00;;;;;;5093709;28;20047;-67
2021/04/16 00:29:08;;;;;;;2.67;0.90;;;19.40;29.00;;;;;;5093706;28;20031;-67
2021/04/16 00:31:34;;;;;;;3.67;1.05;;;19.40;29.00;;;;;;5093580;28;20020;-67
2021/04/16 00:34:00;;;;;;;1.73;0.80;;;19.40;29.00;;;;;;5093533;28;20127;-67
2021/04/16 00:36:27;;;;;;;1.73;0.60;;;19.40;29.00;;;;;;5091909;28;20475;-66
2021/04/16 00:38:52;;;;;;;1.80;0.70;;;19.40;29.00;;;;;;5093310;28;20090;-67
2021/04/16 00:41:22;;;;;;;3.30;0.95;;;19.40;29.00;;;;;;5093515;28;20406;-66
2021/04/16 00:43:48;;;;;;;2.70;0.90;;;19.40;29.10;;;;;;5093240;28;20024;-67
2021/04/16 00:46:31;;;;;;;2.65;1.00;;;19.40;29.10;;;;;;5093567;28;20021;-67
2021/04/16 00:49:00;;;;;;;1.38;0.70;;;19.40;29.00;;;;;;5093388;28;20066;-66
2021/04/16 00:51:36;;;;;;;1.65;0.77;;;19.40;29.10;;;;;;5093440;28;20036;-67
2021/04/16 00:54:04;;;;;;;2.47;0.77;;;19.40;29.00;;;;;;5093192;28;20052;-67
2021/04/16 00:56:30;;;;;;;2.75;0.90;;;19.30;29.00;;;;;;5093403;28;20027;-67
2021/04/16 00:58:57;;;;;;;1.60;0.70;;;19.40;29.00;;;;;;5093284;28;20016;-67
2021/04/16 01:01:24;;;;;;;1.80;0.90;;;19.30;29.10;;;;;;5093170;28;20032;-67
2021/04/16 01:03:50;;;;;;;1.25;0.50;;;19.30;29.10;;;;;;5093300;28;20097;-67
2021/04/16 01:06:15;;;;;;;1.75;0.82;;;19.30;29.10;;;;;;5096822;28;20418;-67
2021/04/16 01:08:42;;;;;;;1.40;0.70;;;19.30;29.00;;;;;;5096825;28;20103;-67
2021/04/16 01:11:08;;;;;;;2.10;0.93;;;19.30;29.00;;;;;;5096980;28;20028;-67
2021/04/16 01:13:38;;;;;;;2.40;1.00;;;19.30;29.10;;;;;;5097107;28;20024;-67
2021/04/16 01:16:09;;;;;;;1.80;0.90;;;19.30;29.00;;;;;;5096972;28;20036;-67
2021/04/16 01:18:37;;;;;;;2.05;1.10;;;19.30;29.10;;;;;;5098019;28;20032;-67
2021/04/16 01:21:07;;;;;;;2.17;1.00;;;19.30;29.10;;;;;;5100283;28;20572;-67
2021/04/16 01:23:37;;;;;;;2.15;1.10;;;19.30;29.00;;;;;;5097312;28;20460;-67
2021/04/16 01:26:06;;;;;;;1.92;0.90;;;19.30;29.10;;;;;;5097007;28;20024;-67
2021/04/16 01:28:32;;;;;;;2.33;1.02;;;19.30;29.10;;;;;;5096598;28;20099;-67
2021/04/16 01:31:06;;;;;;;1.80;0.93;;;19.30;29.10;;;;;;5097590;28;20032;-67
2021/04/16 01:33:34;;;;;;;2.17;0.82;;;19.30;29.10;;;;;;5105132;28;20092;-67
2021/04/16 01:36:00;;;;;;;4.05;0.90;;;19.30;29.10;;;;;;5097517;28;20469;-67
2021/04/16 01:38:26;;;;;;;2.10;1.00;;;19.30;29.10;;;;;;5096375;28;20479;-67
2021/04/16 01:40:53;;;;;;;2.35;1.05;;;19.30;29.10;;;;;;5096196;28;20040;-67
2021/04/16 01:43:26;;;;;;;2.50;1.00;;;19.30;29.10;;;;;;5096213;28;20024;-67
2021/04/16 01:46:02;;;;;;;2.92;1.00;;;19.30;29.10;;;;;;5095815;28;20031;-67
2021/04/16 01:48:39;;;;;;;1.83;0.90;;;19.30;29.10;;;;;;5096095;28;20027;-67
2021/04/16 01:51:08;;;;;;;2.55;0.98;;;19.30;29.10;;;;;;5095662;28;20023;-67
2021/04/16 01:53:34;;;;;;;2.83;1.15;;;19.30;29.20;;;;;;5095833;28;20082;-67
2021/04/16 01:56:00;;;;;;;4.50;1.70;;;19.30;29.20;;;;;;5095852;28;20526;-68
2021/04/16 01:58:25;;;;;;;2.75;1.35;;;19.30;29.20;;;;;;5095781;28;20020;-66
2021/04/16 02:00:51;;;;;;;2.70;1.38;;;19.30;29.20;;;;;;5094282;28;20460;-67
2021/04/16 02:03:16;;;;;;;3.15;1.33;;;19.30;29.20;;;;;;5095869;28;20112;-67
2021/04/16 02:05:42;;;;;;;3.08;1.35;;;19.30;29.20;;;;;;5095539;28;20113;-67
2021/04/16 02:08:08;;;;;;;3.08;1.50;;;19.30;29.20;;;;;;5095575;28;20024;-67
2021/04/16 02:10:34;;;;;;;2.63;1.15;;;19.30;29.20;;;;;;5095422;28;20114;-67
2021/04/16 02:12:59;;;;;;;3.58;1.27;;;19.30;29.20;;;;;;5095658;28;20514;-66
2021/04/16 02:15:25;;;;;;;3.88;1.48;;;19.30;29.20;;;;;;5094715;28;20467;-67
2021/04/16 02:17:51;;;;;;;4.25;1.42;;;19.30;29.20;;;;;;5094819;28;20064;-67
2021/04/16 02:20:20;;;;;;;3.08;1.42;;;19.30;29.20;;;;;;5095247;28;20032;-67
2021/04/16 02:22:46;;;;;;;3.92;1.48;;;19.30;29.20;;;;;;5095092;28;20166;-67
2021/04/16 02:25:12;;;;;;;2.85;1.23;;;19.30;29.20;;;;;;5095153;28;20119;-67
2021/04/16 02:27:38;;;;;;;3.78;1.50;;;19.30;29.20;;;;;;5095009;28;20057;-67
2021/04/16 02:30:09;;;;;;;4.63;1.45;;;19.30;29.20;;;;;;5094955;28;20024;-67
2021/04/16 02:32:35;;;;;;;2.72;1.27;;;19.30;29.20;;;;;;5095022;28;20024;-68
2021/04/16 02:35:00;;;;;;;3.38;1.40;;;19.30;29.30;;;;;;5095082;28;20056;-67
2021/04/16 02:37:26;;;;;;;3.30;1.55;;;19.30;29.30;;;;;;5094940;28;20073;-67
2021/04/16 02:39:52;;;;;;;4.22;1.40;;;19.30;29.30;;;;;;5094457;28;20048;-67
2021/04/16 02:42:18;;;;;;;2.15;1.13;;;19.30;29.30;;;;;;5094833;28;20024;-67
2021/04/16 02:44:44;;;;;;;2.28;1.20;;;19.30;29.30;;;;;;5095151;28;20028;-67
2021/04/16 02:47:10;;;;;;;3.38;1.55;;;19.30;29.30;;;;;;5094723;28;20027;-67
2021/04/16 02:49:35;;;;;;;4.05;1.55;;;19.30;29.30;;;;;;5094727;28;20027;-67
2021/04/16 02:52:03;;;;;;;3.03;1.33;;;19.30;29.30;;;;;;5094471;28;20383;-67
2021/04/16 02:54:28;;;;;;;2.83;1.55;;;19.30;29.30;;;;;;5093456;28;20372;-67
2021/04/16 02:56:55;;;;;;;2.45;1.40;;;19.30;29.30;;;;;;5094390;28;20024;-67
2021/04/16 02:59:21;;;;;;;2.58;1.45;;;19.30;29.30;;;;;;5094198;28;20020;-67
2021/04/16 03:01:47;;;;;;;4.53;1.80;;;19.30;29.30;;;;;;5094085;28;20115;-67
2021/04/16 03:04:13;;;;;;;4.75;2.22;;;19.30;29.30;;;;;;5094012;28;20116;-67
2021/04/16 03:06:38;;;;;;;3.47;1.65;;;19.30;29.30;;;;;;5094316;28;20064;-67
2021/04/16 03:09:05;;;;;;;4.00;1.60;;;19.30;29.30;;;;;;5094680;28;20035;-67
2021/04/16 03:11:31;;;;;;;4.28;1.90;;;19.30;29.30;;;;;;5094215;28;20028;-67
2021/04/16 03:13:58;;;;;;;4.00;1.85;;;19.20;29.30;;;;;;5094476;28;20032;-67
2021/04/16 03:16:27;;;;;;;3.78;1.60;;;19.30;29.30;;;;;;5094310;28;20102;-68
2021/04/16 03:18:54;;;;;;;4.95;1.80;;;19.30;29.40;;;;;;5093929;28;20028;-67
2021/04/16 03:21:21;;;;;;;3.25;1.70;;;19.30;29.30;;;;;;5093815;28;20191;-67
2021/04/16 03:23:46;;;;;;;5.43;2.03;;;19.30;29.40;;;;;;5094521;28;20035;-68
2021/04/16 03:26:12;;;;;;;4.57;1.83;;;19.30;29.40;;;;;;5094080;28;20031;-67
2021/04/16 03:28:37;;;;;;;4.15;1.80;;;19.30;29.40;;;;;;5093602;28;20027;-67
2021/04/16 03:31:03;;;;;;;3.25;1.40;;;19.30;29.40;;;;;;5092574;28;20020;-67
2021/04/16 03:33:29;;;;;;;4.38;2.05;;;19.20;29.40;;;;;;5093808;28;20103;-65
2021/04/16 03:35:55;;;;;;;4.35;1.75;;;19.20;29.40;;;;;;5093748;28;20123;-68
2021/04/16 03:38:21;;;;;;;3.13;1.42;;;19.30;29.40;;;;;;5093457;28;20028;-67
2021/04/16 03:40:47;;;;;;;3.35;1.52;;;19.30;29.40;;;;;;5093621;28;20098;-67
2021/04/16 03:43:13;;;;;;;3.53;1.75;;;19.20;29.40;;;;;;5093973;28;20027;-67
2021/04/16 03:45:38;;;;;;;4.05;1.48;;;19.20;29.40;;;;;;5093494;28;20134;-67
2021/04/16 03:48:04;;;;;;;3.35;1.50;;;19.20;29.40;;;;;;5093415;28;20292;-67
2021/04/16 03:50:32;;;;;;;4.32;1.88;;;19.20;29.40;;;;;;5093419;28;20059;-67
2021/04/16 03:53:00;;;;;;;4.22;1.90;;;19.20;29.40;;;;;;5093459;28;20073;-67
2021/04/16 03:55:31;;;;;;;5.38;2.03;;;19.20;29.40;;;;;;5093202;28;20024;-68
2021/04/16 03:57:57;;;;;;;2.85;1.27;;;19.20;29.40;;;;;;5093286;28;20505;-68
2021/04/16 04:00:26;;;;;;;3.83;1.80;;;19.20;29.40;;;;;;5093278;28;20063;-67
2021/04/16 04:02:52;;;;;;;3.20;1.52;;;19.20;29.40;;;;;;5093312;28;20021;-67
2021/04/16 04:05:19;;;;;;;3.40;1.55;;;19.20;29.40;;;;;;5093645;28;20078;-68
2021/04/16 04:07:45;;;;;;;3.80;1.75;;;19.20;29.40;;;;;;5093523;28;20030;-67
2021/04/16 04:10:11;;;;;;;2.83;1.42;;;19.20;29.40;;;;;;5094046;28;20020;-68
2021/04/16 04:12:37;;;;;;;5.00;1.65;;;19.20;29.40;;;;;;5092687;28;20039;-68
2021/04/16 04:15:04;;;;;;;3.67;1.83;;;19.30;29.40;;;;;;5093925;28;20442;-68
2021/04/16 04:17:33;;;;;;;2.53;1.20;;;19.30;29.40;;;;;;5093399;28;20020;-67
2021/04/16 04:19:59;;;;;;;3.55;1.60;;;19.30;29.30;;;;;;5093401;28;20061;-68
2021/04/16 04:22:26;;;;;;;5.68;1.80;;;19.30;29.30;;;;;;5093459;28;20052;-67
2021/04/16 04:24:52;;;;;;;3.53;1.60;;;19.30;29.30;;;;;;5093569;28;20024;-67
2021/04/16 04:27:20;;;;;;;3.17;1.48;;;19.40;29.30;;;;;;5093414;28;20059;-68
2021/04/16 04:29:46;;;;;;;3.88;1.55;;;19.40;29.30;;;;;;5093394;28;20042;-67
2021/04/16 04:32:12;;;;;;;3.05;1.50;;;19.40;29.30;;;;;;5093162;28;20498;-68
2021/04/16 04:34:39;;;;;;;3.22;1.42;;;19.50;29.30;;;;;;5093212;28;20032;-66
2021/04/16 04:37:07;;;;;;;3.33;1.42;;;19.50;29.30;;;;;;5093441;28;20052;-68
2021/04/16 04:39:38;;;;;;;3.42;1.60;;;19.50;29.20;;;;;;5094610;28;20024;-68
2021/04/16 04:42:04;;;;;;;3.55;1.40;;;19.50;29.30;;;;;;5096936;28;20058;-68
2021/04/16 04:44:31;;;;;;;2.97;1.40;;;19.60;29.30;;;;;;5097304;28;20016;-67
2021/04/16 04:46:57;;;;;;;3.17;1.60;;;19.50;29.20;;;;;;5098420;28;20115;-68
2021/04/16 04:49:23;;;;;;;2.75;1.35;;;19.60;29.30;;;;;;5098792;28;20043;-67
2021/04/16 04:51:50;;;;;;;2.92;1.48;;;19.60;29.30;;;;;;5098218;28;20024;-68
2021/04/16 04:54:18;;;;;;;2.30;1.15;;;19.60;29.20;;;;;;5098602;28;20058;-68
2021/04/16 04:56:44;;;;;;;3.33;1.60;;;19.70;29.30;;;;;;5097214;28;20031;-68
2021/04/16 04:59:09;;;;;;;3.03;1.33;;;19.70;29.30;;;;;;5095630;28;20108;-67
2021/04/16 05:01:35;;;;;;;3.67;1.27;;;19.70;29.20;;;;;;5096851;28;20039;-67
2021/04/16 05:04:00;;;;;;;3.10;1.35;;;19.70;29.20;;;;;;5097068;28;20028;-68
2021/04/16 05:06:26;;;;;;;2.17;1.15;;;19.70;29.30;;;;;;5096723;28;20039;-67
2021/04/16 05:08:52;;;;;;;4.72;1.90;;;19.70;29.30;;;;;;5096698;28;20028;-68
2021/04/16 05:11:18;;;;;;;2.47;1.20;;;19.70;29.30;;;;;;5096541;28;20024;-67
2021/04/16 05:13:43;;;;;;;5.60;1.85;;;19.80;29.30;;;;;;5096496;28;20103;-67
2021/04/16 05:16:09;;;;;;;3.55;1.80;;;19.80;29.30;;;;;;5096307;28;20027;-68
2021/04/16 05:18:37;;;;;;;3.53;1.27;;;19.80;29.30;;;;;;5096354;28;20032;-67
2021/04/16 05:21:03;;;;;;;2.42;1.30;;;19.80;29.30;;;;;;5096082;28;20040;-67
2021/04/16 05:23:29;;;;;;;3.70;1.50;;;19.80;29.30;;;;;;5096721;28;20078;-67
2021/04/16 05:25:54;;;;;;;4.22;1.50;;;19.80;29.20;;;;;;5096053;28;20439;-67
2021/04/16 05:28:20;;;;;;;3.63;1.50;;;19.80;29.20;;;;;;5096645;28;20032;-68
2021/04/16 05:30:45;;;;;;;3.65;1.55;;;19.80;29.20;;;;;;5096182;28;20078;-68
2021/04/16 05:33:11;;;;;;;2.78;1.30;;;19.90;29.30;;;;;;5096108;28;20081;-68
2021/04/16 05:35:36;;;;;;;3.50;1.40;;;19.90;29.30;;;;;;5097034;28;20019;-68
2021/04/16 05:38:02;;;;;;;2.95;1.40;;;19.90;29.30;;;;;;5097576;28;20024;-67
2021/04/16 05:40:28;;;;;;;3.10;1.30;;;19.90;29.30;;;;;;5102208;28;20028;-67
2021/04/16 05:42:54;;;;;;;2.50;1.20;;;19.90;29.30;;;;;;5097704;28;20460;-67
2021/04/16 05:45:21;;;;;;;4.13;1.25;;;19.90;29.20;;;;;;5096637;28;20032;-68
2021/04/16 05:47:46;;;;;;;2.60;1.08;;;19.90;29.30;;;;;;5096241;28;20068;-68
2021/04/16 05:50:14;;;;;;;2.88;1.30;;;19.90;29.30;;;;;;5095031;28;20095;-68
2021/04/16 05:52:39;;;;;;;2.55;1.08;;;19.90;29.30;;;;;;5095540;28;20050;-67
2021/04/16 05:55:06;;;;;;;2.30;1.05;;;19.90;29.20;;;;;;5095765;28;20463;-67
2021/04/16 05:57:31;;;;;;;4.13;1.20;;;20.00;29.20;;;;;;5095714;28;20016;-68
2021/04/16 05:59:57;;;;;;;2.83;1.17;;;19.90;29.20;;;;;;5095348;28;20566;-68
2021/04/16 06:02:31;;;;;;;2.95;1.35;;;19.90;29.20;;;;;;5095397;28;20021;-67
2021/04/16 06:04:57;;;;;;;;;;;20.00;29.30;;;;;;5095957;28;20031;-68
2021/04/16 06:07:23;;;;;;;3.22;1.40;;;20.00;29.20;;;;;;5095609;28;20381;-67
2021/04/16 06:09:50;;;;;;;2.42;1.30;;;20.00;29.30;;;;;;5095319;28;20110;-67
2021/04/16 06:12:16;;;;;;;3.42;1.25;;;20.00;29.30;;;;;;5095274;28;20039;-68
2021/04/16 06:14:43;;;;;;;2.65;1.20;;;20.00;29.30;;;;;;5095356;28;20077;-67
2021/04/16 06:17:10;;;;;;;3.78;1.30;;;20.00;29.30;;;;;;5095146;28;20467;-68
2021/04/16 06:19:36;;;;;;;3.00;1.25;;;20.00;29.30;;;;;;5095029;28;20035;-67
2021/04/16 06:22:02;;;;;;;3.05;1.20;;;20.00;29.20;;;;;;5094555;28;20047;-67
2021/04/16 06:24:28;;;;;;;3.38;1.40;;;20.00;29.20;;;;;;5094852;28;20110;-67
2021/04/16 06:26:53;;;;;;;4.32;1.42;;;20.00;29.30;;;;;;5094021;28;20020;-67
2021/04/16 06:29:19;;;;;;;4.68;1.10;;;20.00;29.30;;;;;;5095017;28;20426;-67
2021/04/16 06:31:44;;;;;;;2.53;1.20;;;20.00;29.30;;;;;;5095030;28;20052;-67
2021/04/16 06:34:10;;;;;;;2.75;1.13;;;20.00;29.20;;;;;;5093802;28;20520;-67
2021/04/16 06:36:35;;;;;;;2.83;1.20;;;20.00;29.30;;;;;;5095097;28;20545;-67
2021/04/16 06:39:02;;;;;;;2.55;1.13;;;20.00;29.30;;;;;;5094705;28;20032;-67
2021/04/16 06:41:31;;;;;;;3.60;1.25;;;20.00;29.30;;;;;;5093714;28;20364;-67
2021/04/16 06:44:00;;;;;;;2.45;1.10;;;20.00;29.30;;;;;;5095182;28;20051;-67
2021/04/16 06:46:28;;;;;;;2.58;1.00;;;20.00;29.20;;;;;;5095206;28;20383;-67
2021/04/16 06:48:59;;;;;;;2.38;1.20;;;20.00;29.30;;;;;;5094605;28;20028;-67
2021/04/16 06:51:27;;;;;;;3.35;1.08;;;20.00;29.30;;;;;;5094397;28;20110;-67
2021/04/16 06:54:01;;;;;;;2.95;1.20;;;20.00;29.20;;;;;;5094768;28;20032;-67
2021/04/16 06:56:53;;;;;;;;;;;20.10;29.20;;;;;;5095185;28;20020;-67
2021/04/16 06:59:25;;;;;;;2.63;1.02;;;20.10;29.20;;;;;;5091237;28;19919;-67
2021/04/16 07:02:04;;;;;;;6.00;1.30;;;20.10;29.20;;;;;;5093968;28;20028;-67
2021/04/16 07:04:37;;;;;;;2.20;1.20;;;20.10;29.20;;;;;;5092879;28;20020;-67
2021/04/16 07:07:18;;;;;;;4.05;1.75;;;20.10;29.20;;;;;;5094422;28;20024;-67
2021/04/16 07:09:47;;;;;;;3.15;1.33;;;20.10;29.20;;;;;;5094159;28;20057;-67
2021/04/16 07:12:14;;;;;;;2.75;1.15;;;20.20;29.20;;;;;;5093678;28;20043;-67
2021/04/16 07:14:51;;;;;;;2.50;1.00;;;20.20;29.10;;;;;;5093982;28;20118;-67
2021/04/16 07:17:20;;;;;;;3.22;1.20;;;20.20;29.20;;;;;;5094067;28;20293;-68
2021/04/16 07:19:45;;;;;;;2.45;1.20;;;20.20;29.10;;;;;;5094054;28;20553;-68
2021/04/16 07:22:41;;;;;;;2.30;1.02;;;20.20;29.10;;;;;;5093778;28;20047;-67
2021/04/16 07:25:28;;;;;;;1.67;1.00;;;20.20;29.10;;;;;;5093954;28;20035;-67
2021/04/16 07:28:00;;;;;;;3.50;1.10;;;20.20;29.10;;;;;;5093853;28;20074;-67
2021/04/16 07:30:33;;;;;;;2.72;1.38;;;20.20;29.00;;;;;;5094006;28;20070;-67
2021/04/16 07:32:59;;;;;;;2.60;0.90;;;20.20;29.10;;;;;;5093783;28;20051;-67
2021/04/16 07:35:29;;;;;;;3.25;1.13;;;20.30;29.10;;;;;;5093820;28;20051;-67
2021/04/16 07:38:12;;;;;;;2.75;1.00;;;20.30;29.10;;;;;;5093696;28;20026;-67
2021/04/16 07:40:44;;;;;;;2.13;1.00;;;20.30;29.00;;;;;;5093404;28;20028;-67
2021/04/16 07:43:33;;;;;;;2.78;0.95;;;20.30;29.00;;;;;;5093356;28;20020;-67
2021/04/16 07:45:59;;;;;;;2.08;0.80;;;20.30;29.00;;;;;;5093448;28;20032;-68
2021/04/16 07:48:32;;;;;;;2.92;1.10;;;20.30;29.00;;;;;;5093548;28;20423;-67
2021/04/16 07:51:00;;;;;;;3.30;1.00;;;20.30;28.90;;;;;;5092248;28;20123;-67
2021/04/16 07:53:34;;;;;;;2.92;1.15;;;20.30;29.00;;;;;;5093369;28;20115;-67
2021/04/16 07:56:15;;;;;;;3.67;1.15;;;20.30;29.00;;;;;;5093740;28;20404;-67
2021/04/16 07:58:42;;;;;;;1.73;0.98;;;20.30;29.00;;;;;;5093381;28;20024;-68
2021/04/16 08:01:20;;;;;;;2.72;0.88;;;20.40;29.00;;;;;;5093277;28;20032;-67
2021/04/16 08:03:51;;;;;;;2.75;1.15;;;20.30;28.90;;;;;;5093716;28;20077;-68
2021/04/16 08:06:38;;;;;;;3.20;1.15;;;20.30;28.80;;;;;;5093487;28;20736;-67
2021/04/16 08:09:13;;;;;;;2.47;0.93;;;20.30;28.90;;;;;;5094093;28;20084;-67
2021/04/16 08:11:40;;;;;;;1.33;0.75;;;20.30;28.90;;;;;;5094951;28;20035;-67
2021/04/16 08:14:19;;;;;;;2.22;1.05;;;20.30;28.90;;;;;;5094658;28;20169;-67
2021/04/16 08:16:58;;;;;;;3.42;1.08;;;20.30;28.90;;;;;;5097724;28;20395;-66
2021/04/16 08:19:26;;;;;;;1.95;0.98;;;20.30;28.90;;;;;;5097481;28;20096;-66
2021/04/16 08:22:13;;;;;;;1.67;0.95;;;20.40;28.90;;;;;;5097445;28;20048;-67
2021/04/16 08:24:52;;;;;;;2.58;1.10;;;20.30;28.70;;;;;;5097412;28;20388;-67
2021/04/16 08:27:37;;;;;;;2.30;1.13;;;20.30;28.90;;;;;;5097316;28;20166;-66
2021/04/16 08:30:09;;;;;;;2.22;0.90;;;20.30;28.80;;;;;;5097258;28;20028;-66
2021/04/16 08:32:46;;;;;;;1.85;0.73;;;20.30;28.80;;;;;;5097262;28;20095;-67
2021/04/16 08:35:19;;;;;;;2.47;1.00;;;20.30;28.80;;;;;;5097276;28;20027;-67
2021/04/16 08:37:55;;;;;;;1.45;0.80;;;20.30;28.80;;;;;;5097319;28;20020;-67
2021/04/16 08:40:39;;;;;;;2.22;0.85;;;20.30;28.80;;;;;;5097113;28;20036;-66
2021/04/16 08:43:06;;;;;;;2.15;0.98;;;20.30;28.80;;;;;;5098137;28;20016;-67
2021/04/16 08:45:34;;;;;;;1.92;0.70;;;20.20;28.80;;;;;;5102920;28;20028;-66
2021/04/16 08:47:59;;;;;;;1.90;0.90;;;20.20;28.70;;;;;;5097636;28;20126;-66
2021/04/16 08:50:31;;;;;;;2.10;0.90;;;20.20;28.70;;;;;;5097494;28;20056;-67
2021/04/16 08:53:00;;;;;;;1.65;0.60;;;20.20;28.60;;;;;;5097072;28;20056;-66
2021/04/16 08:55:34;;;;;;;2.28;0.90;;;20.20;28.60;;;;;;5097201;28;20035;-67
2021/04/16 08:58:01;;;;;;;;;;;20.20;28.60;;;;;;5097510;28;20024;-67
2021/04/16 09:00:32;;;;;;;1.20;0.70;;;20.20;28.60;;;;;;5103031;28;19936;-66
2021/04/16 09:03:01;;;;;;;1.85;0.90;;;20.20;28.60;;;;;;5105556;28;20031;-66
2021/04/16 09:05:30;;;;;;;1.92;0.80;;;20.20;28.60;;;;;;5098182;28;20024;-66
2021/04/16 09:08:16;;;;;;;1.60;0.80;;;20.20;28.60;;;;;;5097472;28;20507;-66
2021/04/16 09:10:50;;;;;;;2.45;1.00;;;20.20;28.40;;;;;;5097175;28;20024;-67
2021/04/16 09:13:38;;;;;;;1.50;0.82;;;20.30;28.30;;;;;;5097133;28;20084;-67
2021/04/16 09:16:16;;;;;;;1.52;0.77;;;20.20;28.40;;;;;;5086816;28;20040;-67
2021/04/16 09:18:53;;;;;;;2.88;1.10;;;20.20;28.40;;;;;;5096517;28;20020;-67
2021/04/16 09:21:23;;;;;;;2.17;0.77;;;20.20;28.40;;;;;;5096162;28;20036;-67
2021/04/16 09:23:49;;;;;;;1.58;0.90;;;20.30;28.30;;;;;;5096427;28;20020;-67
2021/04/16 09:26:48;;;;;;;2.20;0.80;;;20.30;28.40;;;;;;5096210;28;20024;-67
2021/04/16 09:29:35;;;;;;;1.33;0.70;;;20.30;28.40;;;;;;5096419;28;20081;-67
2021/04/16 09:32:04;;;;;;;1.90;0.70;;;20.30;28.20;;;;;;5095904;28;20093;-67
2021/04/16 09:34:52;;;;;;;2.67;0.85;;;20.30;28.30;;;;;;5096147;28;20494;-67
2021/04/16 09:37:34;;;;;;;1.90;0.85;;;20.30;28.30;;;;;;5095395;28;20081;-67
2021/04/16 09:40:09;;;;;;;1.88;0.75;;;20.30;28.20;;;;;;5095160;28;20414;-67
2021/04/16 09:43:18;;;;;;;1.85;0.60;;;20.30;28.10;;;;;;5095212;28;20047;-67
2021/04/16 09:45:51;;;;;;;2.92;1.02;;;20.30;28.30;;;;;;5074928;28;20480;-67
2021/04/16 09:48:19;;;;;;;4.00;1.00;;;20.30;28.20;;;;;;5095203;28;20020;-67
2021/04/16 09:50:58;;;;;;;1.13;0.80;;;20.30;28.10;;;;;;5094960;28;20086;-67
2021/04/16 09:53:27;;;;;;;1.80;0.77;;;20.30;28.00;;;;;;5094778;28;20028;-67
2021/04/16 09:55:59;;;;;;;1.65;0.52;;;20.30;28.00;;;;;;5095436;28;20028;-67
2021/04/16 09:58:34;;;;;;;2.90;0.70;;;20.30;28.00;;;;;;5095153;28;20024;-67
2021/04/16 10:01:09;;;;;;;1.58;0.70;;;20.20;28.10;;;;;;5094906;28;20032;-66
2021/04/16 10:03:37;;;;;;;2.13;0.75;;;20.30;28.00;;;;;;5094952;28;20020;-67
2021/04/16 10:06:39;;;;;;;1.52;0.70;;;20.30;28.00;;;;;;5094860;28;20493;-66
2021/04/16 10:09:17;;;;;;;1.75;0.68;;;20.30;28.00;;;;;;5094533;28;20032;-67
2021/04/16 10:12:02;;;;;;;1.40;0.65;;;20.30;27.90;;;;;;5094859;28;20118;-67
2021/04/16 10:14:32;;;;;;;1.63;0.70;;;20.30;28.00;;;;;;5094781;28;20019;-67
2021/04/16 10:17:03;;;;;;;1.65;0.70;;;20.30;28.00;;;;;;5094726;28;20093;-67
2021/04/16 10:19:35;;;;;;;1.38;0.75;;;20.30;28.00;;;;;;5094577;28;20035;-67
2021/04/16 10:22:12;;;;;;;1.50;0.50;;;20.40;27.90;;;;;;5094315;28;20104;-67
2021/04/16 10:28:49;;;;;;;1.20;0.63;;;20.40;27.90;;;;;;5065479;28;20066;-67
2021/04/16 10:34:27;;;;;;;2.10;0.90;;;20.40;27.90;;;;;;5094893;28;20117;-68
2021/04/16 10:43:01;;;;;;;1.70;0.75;;;20.40;27.90;;;;;;5095415;28;20043;-67
2021/04/16 11:03:57;;;;;;;1.33;0.65;;;20.40;28.00;;;;;;5071576;28;20097;-67
2021/04/16 11:11:04;;;;;;;1.80;0.73;;;20.40;28.00;;;;;;5094658;28;20070;-67
2021/04/16 12:39:32;;;;;;;0.82;0.45;;;20.90;27.40;;;;;;5093119;28;20055;-67
2021/04/16 12:41:58;;;;;;;1.48;0.70;;;20.90;27.40;;;;;;5093222;28;20032;-67
2021/04/16 12:44:34;;;;;;;1.63;0.70;;;20.90;27.40;;;;;;5093141;28;20023;-67
2021/04/16 12:47:26;;;;;;;1.83;0.60;;;20.80;27.40;;;;;;5093140;28;20479;-67
2021/04/16 12:49:52;;;;;;;2.05;0.43;;;20.80;27.50;;;;;;5093008;28;20517;-67
2021/04/16 12:52:19;;;;;;;2.05;0.77;;;20.80;27.50;;;;;;5093087;28;20030;-67
2021/04/16 12:54:49;;;;;;;3.40;0.60;;;20.80;27.50;;;;;;5093056;28;20089;-67
2021/04/16 12:57:37;;;;;;;1.77;0.60;;;20.80;27.50;;;;;;5091291;28;20475;-67
2021/04/16 13:00:20;;;;;;;1.10;0.47;;;20.80;27.40;;;;;;5083698;28;20048;-67
2021/04/16 13:02:46;;;;;;;2.72;0.65;;;20.90;27.30;;;;;;5096524;28;20032;-67
2021/04/16 13:05:14;;;;;;;1.15;0.57;;;21.00;27.30;;;;;;5096236;28;20058;-67
2021/04/16 13:07:41;;;;;;;2.72;0.80;;;21.00;27.20;;;;;;5096506;28;20094;-67
2021/04/16 13:10:10;;;;;;;1.08;0.50;;;21.00;27.10;;;;;;5096553;28;20028;-67
2021/04/16 13:12:36;;;;;;;0.75;0.50;;;21.00;27.20;;;;;;5096424;28;20387;-67
2021/04/16 13:15:02;;;;;;;1.13;0.70;;;21.00;27.20;;;;;;5096454;28;20028;-67
2021/04/16 13:17:29;;;;;;;2.05;0.70;;;21.00;27.20;;;;;;5096344;28;20058;-67
2021/04/16 13:19:56;;;;;;;2.45;0.60;;;21.00;27.20;;;;;;5096223;28;20020;-67
2021/04/16 13:22:22;;;;;;;1.60;0.40;;;21.00;27.20;;;;;;5096239;28;20484;-67
2021/04/16 13:24:49;;;;;;;1.17;0.70;;;20.90;27.30;;;;;;5096373;28;20031;-67
2021/04/16 13:27:19;;;;;;;0.68;0.43;;;20.90;27.30;;;;;;5096392;28;20020;-67
2021/04/16 13:29:44;;;;;;;1.20;0.50;;;20.90;27.40;;;;;;5096093;28;20077;-67
2021/04/16 13:32:13;;;;;;;0.55;0.40;;;20.80;27.50;;;;;;5094712;28;20024;-69
2021/04/16 13:34:40;;;;;;;0.80;0.50;;;20.80;27.50;;;;;;5096003;28;20024;-67
2021/04/16 13:37:08;;;;;;;1.45;0.57;;;20.70;27.50;;;;;;5096354;28;20103;-67
2021/04/16 13:39:33;;;;;;;2.35;0.70;;;20.70;27.60;;;;;;5096304;28;20127;-67
2021/04/16 13:41:59;;;;;;;1.73;0.63;;;20.70;27.50;;;;;;5095714;28;20503;-66
2021/04/16 13:44:25;;;;;;;1.30;0.50;;;20.70;27.50;;;;;;5095857;28;20495;-66
2021/04/16 13:46:51;;;;;;;0.80;0.45;;;20.80;27.50;;;;;;5095723;28;20035;-66
2021/04/16 13:49:22;;;;;;;1.33;0.60;;;20.80;27.40;;;;;;5095646;28;20462;-67
2021/04/16 13:51:48;;;;;;;1.67;0.55;;;20.80;27.30;;;;;;5095990;28;20056;-67
2021/04/16 13:54:14;;;;;;;2.35;0.50;;;20.90;27.20;;;;;;5096256;28;20028;-67
2021/04/16 13:56:40;;;;;;;3.00;0.85;;;20.90;27.30;;;;;;5097383;28;20031;-66
2021/04/16 13:59:09;;;;;;;1.42;0.40;;;20.90;27.40;;;;;;5095492;28;20420;-66
2021/04/16 14:01:35;;;;;;;0.80;0.47;;;20.80;27.40;;;;;;5095602;28;20090;-66
2021/04/16 14:04:05;;;;;;;1.33;0.47;;;20.80;27.40;;;;;;5095526;28;20020;-65
2021/04/16 14:06:37;;;;;;;1.38;0.63;;;20.80;27.30;;;;;;5095396;28;20021;-67
2021/04/16 14:09:09;;;;;;;1.25;0.60;;;20.80;27.30;;;;;;5095480;28;20031;-67
2021/04/16 14:11:36;;;;;;;0.90;0.50;;;20.90;27.30;;;;;;5094237;28;20025;-68
2021/04/16 14:14:05;;;;;;;0.90;0.70;;;20.90;27.30;;;;;;5095042;28;20035;-68
2021/04/16 14:16:33;;;;;;;2.47;0.60;;;20.90;27.30;;;;;;5094984;28;20509;-68
2021/04/16 14:19:04;;;;;;;1.02;0.60;;;21.00;27.20;;;;;;5095106;28;20020;-68
2021/04/16 14:21:35;;;;;;;0.93;0.35;;;21.00;27.20;;;;;;5094612;28;20072;-67
2021/04/16 14:24:01;;;;;;;1.00;0.52;;;20.90;27.20;;;;;;5095094;28;20070;-68
2021/04/16 14:26:26;;;;;;;2.70;0.60;;;20.90;27.30;;;;;;5095054;28;20379;-68
2021/04/16 14:28:52;;;;;;;0.93;0.40;;;20.90;27.20;;;;;;5094793;28;20413;-68
2021/04/16 14:31:17;;;;;;;0.88;0.60;;;21.00;27.20;;;;;;5093578;28;20186;-68
2021/04/16 14:33:43;;;;;;;0.82;0.50;;;21.00;27.10;;;;;;5095320;28;20024;-68
2021/04/16 14:36:10;;;;;;;0.88;0.50;;;21.00;27.10;;;;;;5094930;28;20050;-67
2021/04/16 14:38:36;;;;;;;1.17;0.50;;;21.00;27.10;;;;;;5095002;28;20083;-67
2021/04/16 14:41:03;;;;;;;1.13;0.50;;;21.00;27.10;;;;;;5094392;28;20035;-68
2021/04/16 14:43:30;;;;;;;1.48;0.60;;;21.00;27.20;;;;;;5094545;28;20069;-67
2021/04/16 14:45:56;;;;;;;0.55;0.40;;;21.00;27.10;;;;;;5094823;28;20024;-67
2021/04/16 14:48:24;;;;;;;4.63;0.80;;;20.90;27.10;;;;;;5094653;28;20020;-67
2021/04/16 14:50:54;;;;;;;1.30;0.70;;;20.90;27.20;;;;;;5094721;28;20078;-67
2021/04/16 14:53:26;;;;;;;0.88;0.60;;;20.90;27.20;;;;;;5094428;28;20043;-67
2021/04/16 14:55:52;;;;;;;0.85;0.50;;;20.80;27.30;;;;;;5094471;28;20024;-67
2021/04/16 14:58:28;;;;;;;1.85;0.60;;;20.80;27.30;;;;;;5094420;28;20077;-67
2021/04/16 15:00:54;;;;;;;0.88;0.50;;;20.80;27.40;;;;;;5094160;28;20507;-67
2021/04/16 15:03:19;;;;;;;1.02;0.52;;;20.80;27.30;;;;;;5094071;28;20297;-67